Latest Weather Observations for Wangaratta

IDV60801

Issued at 5:05 pm EDT Saturday 29 November 2014 (issued every 30 minutes, with the page automatically refreshed every 10 minutes)

About weather observations | Map of weather stations | Latest weather observations for VIC | Other Formats
Station Details ID: 082138 Name: WANGARATTA AERO Lat: -36.42 Lon: 146.31 Height: 152.6 m
Data from the previous 72 hours. | See also: Recent months at Wangaratta
Date/Time
EDT
Temp
°C
App
Temp
°C
Dew
Point
Rel
Hum
%
Delta-T
°C
Wind Press
QNH
hPa
Press
MSL
hPa
Rain
since 9 am
mm
Dir
 
Spd
km/h
Gust
km/h
Spd
kts
Gust
kts
29/05:00pm 32.0 27.5 7.0 21 13.7 E 20 26 11 14 1009.3 1009.0 0.0
29/04:30pm 32.3 29.4 6.5 20 14.0 N 11 20 6 11 1009.7 1009.4 0.0
29/04:00pm 32.0 28.8 8.3 23 13.3 NE 15 20 8 11 1010.2 1009.9 0.0
29/03:30pm 31.8 26.8 8.1 23 13.2 NNE 24 32 13 17 1010.6 1010.3 0.0
29/03:00pm 30.8 26.7 8.5 25 12.4 ENE 20 28 11 15 1011.1 1010.8 0.0
29/02:30pm 31.0 29.1 10.4 28 11.8 N 11 15 6 8 1011.5 1011.2 0.0
29/02:00pm 30.3 27.5 8.7 26 12.1 N 13 20 7 11 1012.2 1011.8 0.0
29/01:30pm 30.2 26.8 9.1 27 11.8 N 17 32 9 17 1012.8 1012.4 0.0
29/01:00pm 29.8 27.4 9.9 29 11.3 NE 13 17 7 9 1013.3 1013.0 0.0
29/12:30pm 28.7 25.4 9.4 30 10.8 NE 17 28 9 15 1013.7 1013.4 0.0
29/12:00pm 27.5 24.4 8.9 31 10.3 NE 15 24 8 13 1014.3 1014.0 0.0
29/11:30am 27.6 24.4 9.9 33 9.9 NE 17 24 9 13 1014.8 1014.5 0.0
29/11:00am 26.6 22.6 9.0 33 9.7 ENE 20 24 11 13 1015.2 1014.9 0.0
29/10:30am 25.7 22.8 9.5 36 8.9 N 15 26 8 14 1015.6 1015.3 0.0
29/10:00am 24.6 21.3 9.7 39 8.2 NE 17 30 9 16 1015.8 1015.5 0.0
29/09:30am 23.2 22.4 11.6 48 6.6 ESE 7 11 4 6 1016.2 1015.9 0.0
29/09:00am 20.8 19.7 12.0 57 4.9 SE 9 13 5 7 1016.5 1016.2 0.0
29/08:30am 19.3 18.5 11.6 61 4.3 SE 7 11 4 6 1016.5 1016.2 0.0
29/08:00am 18.2 16.9 11.3 64 3.8 SSE 9 13 5 7 1016.6 1016.3 0.0
29/07:30am 17.0 16.3 11.3 69 3.1 S 6 9 3 5 1016.6 1016.3 0.0
29/07:00am 14.4 15.0 11.9 85 1.4 CALM 0 0 0 0 1016.5 1016.2 0.0
29/06:30am 12.2 12.4 10.4 89 0.9 CALM 0 0 0 0 1016.2 1015.9 0.0
29/06:00am 11.5 11.3 9.2 86 1.2 CALM 0 0 0 0 1015.9 1015.6 0.0
29/05:30am 11.8 11.8 9.7 87 1.1 CALM 0 0 0 0 1015.7 1015.4 0.0
29/05:00am 11.7 11.7 9.8 88 1.0 CALM 0 0 0 0 1015.3 1015.0 0.0
29/04:30am 12.6 12.7 10.0 84 1.3 CALM 0 0 0 0 1014.9 1014.6 0.0
29/04:00am 12.2 12.3 10.1 87 1.1 CALM 0 0 0 0 1014.9 1014.6 0.0
29/03:30am 13.2 13.5 10.9 86 1.2 CALM 0 0 0 0 1014.8 1014.5 0.0
29/03:00am 13.0 13.0 11.1 88 1.0 W 2 6 1 3 1014.9 1014.6 0.0
29/02:30am 13.1 13.4 10.8 86 1.2 CALM 0 0 0 0 1014.9 1014.6 0.0
29/02:00am 14.0 14.0 9.8 76 2.2 CALM 0 0 0 0 1015.0 1014.7 0.0
29/01:30am 14.1 13.1 10.9 81 1.7 WSW 7 7 4 4 1015.3 1015.0 0.0
29/01:00am 14.0 12.8 10.2 78 2.0 SSW 7 9 4 5 1015.5 1015.2 0.0
29/12:30am 15.3 13.9 9.7 69 2.9 SW 7 9 4 5 1015.7 1015.4 0.0
29/12:00am 17.9 15.7 9.3 57 4.5 S 11 13 6 7 1015.8 1015.5 0.0
 
Date/Time
EDT
Temp
°C
App
Temp
°C
Dew
Point
Rel
Hum
%
Delta-T
°C
Wind Press
QNH
hPa
Press
MSL
hPa
Rain
since 9 am
mm
Dir
 
Spd
km/h
Gust
km/h
Spd
kts
Gust
kts
28/11:30pm 17.4 15.2 10.8 65 3.6 S 13 17 7 9 1016.0 1015.7 0.0
28/11:00pm 15.3 14.1 11.7 79 2.0 SSW 9 11 5 6 1015.9 1015.6 0.0
28/10:30pm 17.0 17.5 11.7 71 2.9 CALM 0 0 0 0 1016.2 1015.9 0.0
28/10:00pm 17.9 17.3 11.7 67 3.4 SW 6 7 3 4 1015.9 1015.6 0.0
28/09:30pm 18.1 16.8 11.2 64 3.8 SSW 9 11 5 6 1015.8 1015.5 0.0
28/09:00pm 19.9 19.1 9.8 52 5.4 E 4 7 2 4 1015.6 1015.3 0.0
28/08:30pm 22.7 21.4 9.8 44 7.1 SE 7 9 4 5 1015.5 1015.2 0.0
28/08:00pm 25.5 23.2 7.6 32 9.5 SE 9 11 5 6 1015.4 1015.1 0.0
28/07:30pm 27.8 25.2 6.0 25 11.5 SSE 9 11 5 6 1015.3 1015.0 0.0
28/07:00pm 28.8 26.8 4.3 21 12.6 ESE 4 7 2 4 1015.3 1015.0 0.0
28/06:30pm 28.2 25.7 3.8 21 12.4 NE 6 11 3 6 1015.3 1015.0 0.0
28/06:00pm 29.0 26.3 3.8 20 12.8 NNE 7 13 4 7 1015.3 1015.0 0.0
28/05:30pm 29.1 26.4 3.9 20 12.9 ENE 7 15 4 8 1015.5 1015.2 0.0
28/05:00pm 29.3 26.5 3.3 19 13.2 SE 7 13 4 7 1015.7 1015.4 0.0
28/04:30pm 27.8 26.0 3.5 21 12.2 E 2 9 1 5 1016.1 1015.8 0.0
28/04:00pm 28.5 25.4 3.4 20 12.7 N 9 19 5 10 1016.4 1016.1 0.0
28/03:30pm 27.6 24.8 3.3 21 12.2 S 7 13 4 7 1016.9 1016.6 0.0
28/03:00pm 28.8 25.2 5.0 22 12.4 NNW 13 22 7 12 1017.4 1017.1 0.0
28/02:30pm 28.6 26.5 6.7 25 11.7 S 7 13 4 7 1017.7 1017.4 0.0
28/02:00pm 27.7 24.2 7.0 27 11.0 NE 15 24 8 13 1018.3 1018.0 0.0
28/01:30pm 27.0 23.3 6.4 27 10.9 NE 15 20 8 11 1019.0 1018.7 0.0
28/01:00pm 26.7 23.6 7.2 29 10.4 N 13 20 7 11 1019.6 1019.3 0.0
28/12:30pm 25.9 23.5 7.0 30 10.0 N 9 20 5 11 1019.9 1019.6 0.0
28/12:00pm 25.1 23.0 8.1 34 9.1 N 9 19 5 10 1020.3 1020.0 0.0
28/11:30am 23.7 21.3 8.5 38 8.2 N 11 20 6 11 1020.9 1020.6 0.0
28/11:00am 22.9 21.1 9.3 42 7.4 N 9 19 5 10 1021.3 1021.0 0.0
28/10:30am 21.6 20.0 8.8 44 6.8 ESE 7 15 4 8 1021.6 1021.3 0.0
28/10:00am 21.3 19.9 8.9 45 6.6 NE 6 13 3 7 1021.8 1021.5 0.0
28/09:30am 20.0 18.5 8.4 47 6.1 W 6 9 3 5 1022.0 1021.7 0.0
28/09:00am 19.0 18.3 8.4 50 5.5 NW 2 9 1 5 1022.2 1021.9 0.0
28/08:30am 17.2 16.1 8.6 57 4.5 SSW 4 7 2 4 1022.1 1021.8 0.0
28/08:00am 15.8 14.2 8.8 63 3.6 S 7 9 4 5 1022.1 1021.8 0.0
28/07:30am 14.8 14.5 10.0 73 2.5 SSW 2 6 1 3 1021.7 1021.4 0.0
28/07:00am 12.2 12.3 10.1 87 1.1 CALM 0 0 0 0 1021.3 1021.0 0.0
28/06:30am 10.3 9.9 8.4 88 0.9 CALM 0 0 0 0 1020.8 1020.5 0.0
28/06:00am 9.9 9.4 7.8 87 1.0 CALM 0 0 0 0 1020.7 1020.4 0.0
28/05:30am 10.0 8.2 7.8 86 1.1 SSE 7 9 4 5 1020.4 1020.1 0.0
28/05:00am 10.9 10.5 8.1 83 1.4 CALM 0 0 0 0 1020.0 1019.7 0.0
28/04:30am 11.4 10.9 7.7 78 1.8 CALM 0 4 0 2 1019.6 1019.3 0.0
28/04:00am 11.0 10.6 8.2 83 1.4 CALM 0 0 0 0 1019.4 1019.1 0.0
28/03:30am 12.0 11.7 8.8 81 1.6 CALM 0 0 0 0 1019.3 1019.0 0.0
28/03:00am 11.7 11.1 7.2 74 2.2 CALM 0 0 0 0 1019.3 1019.0 0.0
28/02:30am 12.3 11.1 8.0 75 2.1 S 4 7 2 4 1019.2 1018.9 0.0
28/02:00am 13.5 13.1 8.4 71 2.6 CALM 0 4 0 2 1019.1 1018.8 0.0
28/01:30am 13.7 11.9 7.9 68 2.9 S 7 9 4 5 1019.3 1019.0 0.0
28/01:00am 14.0 11.8 7.8 66 3.1 S 9 11 5 6 1019.4 1019.1 0.0
28/12:30am 15.1 13.3 8.1 63 3.5 S 7 9 4 5 1019.6 1019.3 0.0
28/12:00am 15.2 13.7 8.4 64 3.5 S 6 7 3 4 1019.6 1019.3 0.0
 
Date/Time
EDT
Temp
°C
App
Temp
°C
Dew
Point
Rel
Hum
%
Delta-T
°C
Wind Press
QNH
hPa
Press
MSL
hPa
Rain
since 9 am
mm
Dir
 
Spd
km/h
Gust
km/h
Spd
kts
Gust
kts
27/11:30pm 17.0 15.6 8.7 58 4.3 S 6 7 3 4 1019.5 1019.2 0.0
27/11:00pm 18.3 15.7 7.7 50 5.4 S 11 17 6 9 1019.3 1019.0 0.0
27/10:30pm 19.1 16.2 8.1 49 5.7 S 13 15 7 8 1019.3 1019.0 0.0
27/10:00pm 19.6 16.4 8.6 49 5.8 S 15 17 8 9 1019.1 1018.8 0.0
27/09:30pm 19.6 17.0 9.5 52 5.4 SSW 13 17 7 9 1018.7 1018.3 0.0
27/09:00pm 19.9 17.1 8.6 48 5.9 SSW 13 15 7 8 1018.5 1018.1 0.0
27/08:30pm 20.4 17.2 6.7 41 7.0 SSW 13 15 7 8 1018.2 1017.9 0.0
27/08:00pm 23.5 20.1 5.9 32 9.0 SSW 13 17 7 9 1018.1 1017.8 0.0
27/07:30pm 26.7 24.3 5.1 25 11.1 WSW 7 9 4 5 1017.9 1017.6 0.0
27/07:00pm 27.4 24.5 2.5 20 12.3 SSW 7 11 4 6 1017.8 1017.5 0.0
27/06:30pm 27.8 24.7 1.3 18 12.8 S 7 13 4 7 1017.8 1017.5 0.0
27/06:00pm 27.8 24.1 -0.3 16 13.2 ESE 9 13 5 7 1017.6 1017.3 0.0
27/05:30pm 28.2 24.9 0.0 16 13.4 SSW 7 13 4 7 1017.7 1017.4 0.0
27/05:00pm 28.2 24.8 1.7 18 12.9 W 9 13 5 7 1017.8 1017.5 0.0
27/04:30pm 27.6 24.2 1.9 19 12.6 SSW 9 17 5 9 1018.0 1017.7 0.0
27/04:00pm 27.5 24.7 3.2 21 12.1 SW 7 15 4 8 1018.3 1018.0 0.0
27/03:30pm 27.8 24.9 4.8 23 11.8 SW 9 20 5 11 1018.6 1018.2 0.0
27/03:00pm 26.6 23.0 5.0 25 11.1 S 13 19 7 10 1019.0 1018.7 0.0
27/02:30pm 27.4 24.3 5.6 25 11.4 NNE 11 20 6 11 1019.3 1019.0 0.0
27/02:00pm 26.0 23.7 5.6 27 10.5 N 7 11 4 6 1019.7 1019.4 0.0
27/01:30pm 25.0 22.8 6.2 30 9.8 SW 7 17 4 9 1020.1 1019.8 0.0
27/01:00pm 25.2 23.2 7.3 32 9.5 S 7 13 4 7 1020.4 1020.1 0.0
27/12:30pm 24.1 22.1 7.3 34 8.8 WSW 7 13 4 7 1020.6 1020.3 0.0
27/12:00pm 24.0 22.4 8.8 38 8.2 SW 7 13 4 7 1020.9 1020.6 0.0
27/11:30am 22.9 21.0 7.4 37 8.1 NW 7 13 4 7 1021.2 1020.9 0.0
27/11:00am 21.7 19.3 7.2 39 7.5 N 9 13 5 7 1021.4 1021.1 0.0
27/10:30am 20.9 18.3 6.1 38 7.5 S 9 20 5 11 1021.7 1021.4 0.0
27/10:00am 20.7 18.4 7.3 42 6.9 S 9 13 5 7 1021.8 1021.5 0.0
27/09:30am 18.8 16.2 6.3 44 6.2 SSE 9 19 5 10 1021.9 1021.6 0.0
27/09:00am 18.0 15.0 6.2 46 5.8 SE 11 19 6 10 1021.9 1021.6 0.0
27/08:30am 16.0 13.5 6.4 53 4.7 SSE 9 17 5 9 1021.9 1021.6 0.0
27/08:00am 14.1 10.9 6.9 62 3.5 S 13 17 7 9 1021.8 1021.5 0.0
27/07:30am 13.4 11.1 7.6 68 2.9 S 9 13 5 7 1021.5 1021.2 0.0
27/07:00am 11.7 9.1 7.8 77 1.9 SSW 11 13 6 7 1021.2 1020.9 0.0
27/06:30am 10.1 7.9 7.7 85 1.2 SSW 9 9 5 5 1020.9 1020.6 0.0
27/06:00am 10.2 7.5 7.3 82 1.4 S 11 13 6 7 1020.6 1020.3 0.0
27/05:30am 10.0 7.7 7.4 84 1.2 S 9 13 5 7 1020.2 1019.9 0.0
27/05:00am 10.2 8.3 7.4 83 1.3 S 7 9 4 5 1020.0 1019.7 0.0
27/04:30am 10.4 8.3 6.7 78 1.8 SSE 7 9 4 5 1019.7 1019.4 0.0
27/04:00am 11.6 9.4 7.7 77 1.9 SSW 9 9 5 5 1019.3 1019.0 0.0
27/03:30am 11.9 8.8 7.4 74 2.2 SW 13 15 7 8 1019.3 1019.0 0.0
27/03:00am 12.4 9.0 7.7 73 2.3 SW 15 17 8 9 1019.3 1019.0 0.0
27/02:30am 12.8 9.8 7.9 72 2.4 SW 13 19 7 10 1019.4 1019.1 0.0
27/02:00am 13.3 10.0 8.2 71 2.5 SW 15 20 8 11 1019.6 1019.3 0.0
27/01:30am 13.8 10.6 8.4 70 2.7 SW 15 19 8 10 1019.8 1019.5 0.0
27/01:00am 14.2 11.0 8.4 68 2.9 SW 15 20 8 11 1020.0 1019.7 0.0
27/12:30am 14.7 11.1 8.4 66 3.2 SW 17 24 9 13 1020.2 1019.9 0.0
27/12:00am 14.9 11.3 8.2 64 3.4 SW 17 20 9 11 1020.4 1020.1 0.0
 
Date/Time
EDT
Temp
°C
App
Temp
°C
Dew
Point
Rel
Hum
%
Delta-T
°C
Wind Press
QNH
hPa
Press
MSL
hPa
Rain
since 9 am
mm
Dir
 
Spd
km/h
Gust
km/h
Spd
kts
Gust
kts
26/11:30pm 15.7 11.4 7.7 59 4.0 SW 20 26 11 14 1020.4 1020.1 0.0
26/11:00pm 15.9 12.1 7.7 58 4.1 SW 17 22 9 12 1020.3 1020.0 0.0
26/10:30pm 16.1 13.1 7.6 57 4.3 SW 13 17 7 9 1020.3 1020.0 0.0
26/10:00pm 17.1 12.8 7.7 54 4.8 SW 20 30 11 16 1019.8 1019.5 0.0
26/09:30pm 17.6 13.5 7.9 53 5.0 SSW 19 28 10 15 1019.6 1019.3 0.0
26/09:00pm 18.1 13.4 7.8 51 5.3 SSW 22 32 12 17 1019.3 1019.0 0.0
26/08:30pm 18.5 14.9 8.5 52 5.2 SSW 17 24 9 13 1019.1 1018.8 0.0
26/08:00pm 19.5 14.5 7.9 47 6.0 SW 24 33 13 18 1018.8 1018.5 0.0
26/07:30pm 20.8 16.6 8.4 45 6.5 SW 20 33 11 18 1018.5 1018.1 0.0
26/07:00pm 21.8 16.8 8.0 41 7.2 SW 24 32 13 17 1018.0 1017.7 0.0
26/06:30pm 23.0 17.9 7.5 37 8.1 SW 24 33 13 18 1017.5 1017.2 0.0
26/06:00pm 23.4 17.8 7.1 35 8.5 SSW 26 33 14 18 1017.3 1017.0 0.0
26/05:30pm 24.8 19.8 7.9 34 9.0 SSW 24 37 13 20 1017.3 1017.0 0.0

Other Formats:

Comma delimited format used in spreadsheet applications
http://www.bom.gov.au/fwo/IDV60801/IDV60801.94889.axf

JavaScript Object Notation format (JSON) in row-major order
http://www.bom.gov.au/fwo/IDV60801/IDV60801.94889.json